createdAt,value
2022-07-29T00:00:18.103Z,65.93
2022-07-29T00:00:49.716Z,66.12
2022-07-29T00:01:21.515Z,65.97
2022-07-29T00:01:53.508Z,65.80
2022-07-29T00:02:25.087Z,66.00
2022-07-29T00:02:56.799Z,65.95
2022-07-29T00:03:28.438Z,65.97
2022-07-29T00:04:00.168Z,65.93
2022-07-29T00:04:31.855Z,65.96
2022-07-29T00:05:04.656Z,66.00
2022-07-29T00:05:36.213Z,66.20
2022-07-29T00:06:08.084Z,66.13
2022-07-29T00:06:41.052Z,65.97
2022-07-29T00:07:12.978Z,65.89
2022-07-29T00:07:45.573Z,65.81
2022-07-29T00:08:17.204Z,65.79
2022-07-29T00:08:48.826Z,65.59
2022-07-29T00:09:20.380Z,64.80
2022-07-29T00:09:52.732Z,64.55
2022-07-29T00:10:24.381Z,63.80
2022-07-29T00:10:56.008Z,63.95
2022-07-29T00:11:27.611Z,65.47
2022-07-29T00:12:01.233Z,65.02
2022-07-29T00:12:32.822Z,64.08
2022-07-29T00:13:04.452Z,63.80
2022-07-29T00:13:36.036Z,64.18
2022-07-29T00:14:07.692Z,64.38
2022-07-29T00:14:39.258Z,63.60
2022-07-29T00:15:11.034Z,63.08
2022-07-29T00:15:42.780Z,63.20
2022-07-29T00:16:14.445Z,63.47
2022-07-29T00:16:46.087Z,63.21
2022-07-29T00:17:19.105Z,63.84
2022-07-29T00:17:50.938Z,63.71
2022-07-29T00:18:22.531Z,63.93
2022-07-29T00:18:54.114Z,63.39
2022-07-29T00:19:25.657Z,62.87
2022-07-29T00:19:57.216Z,62.81
2022-07-29T00:20:28.856Z,63.60
2022-07-29T00:21:00.607Z,63.90
2022-07-29T00:21:32.231Z,63.69
2022-07-29T00:22:03.820Z,63.09
2022-07-29T00:22:39.488Z,63.57
2022-07-29T00:23:13.714Z,63.53
2022-07-29T00:23:45.387Z,63.31
2022-07-29T00:24:17.384Z,63.06
2022-07-29T00:24:50.202Z,62.82
2022-07-29T00:25:21.865Z,62.80
2022-07-29T00:25:53.433Z,62.67
2022-07-29T00:26:25.021Z,62.67
2022-07-29T00:26:56.580Z,62.40
2022-07-29T00:27:28.186Z,62.30
2022-07-29T00:27:59.736Z,62.10
2022-07-29T00:28:32.798Z,61.70
2022-07-29T00:29:32.966Z,61.60
2022-07-29T00:29:57.175Z,62.15
2022-07-29T00:30:28.779Z,60.75
2022-07-29T00:31:00.571Z,60.21
2022-07-29T00:31:32.318Z,60.39
2022-07-29T00:32:04.214Z,60.20
2022-07-29T00:32:35.903Z,59.70
2022-07-29T00:33:09.223Z,59.68
2022-07-29T00:33:40.865Z,58.94
2022-07-29T00:34:31.020Z,58.71
2022-07-29T00:35:21.545Z,59.10
2022-07-29T00:35:53.112Z,59.36
2022-07-29T00:36:26.567Z,59.70
2022-07-29T00:36:58.533Z,59.84
2022-07-29T00:37:30.161Z,60.33
2022-07-29T00:38:02.036Z,60.23
2022-07-29T00:38:33.827Z,60.16
2022-07-29T00:39:05.393Z,59.63
2022-07-29T00:39:36.957Z,59.54
2022-07-29T00:40:09.177Z,58.94
2022-07-29T00:40:43.954Z,58.74
2022-07-29T00:41:16.830Z,58.89
2022-07-29T00:41:48.485Z,58.30
2022-07-29T00:42:20.150Z,58.54
2022-07-29T00:42:53.554Z,58.27
2022-07-29T00:43:25.206Z,58.71
2022-07-29T00:43:56.776Z,58.82
2022-07-29T00:44:28.351Z,58.46
2022-07-29T00:44:59.906Z,57.96
2022-07-29T00:45:31.769Z,58.16
2022-07-29T00:46:03.342Z,58.05
2022-07-29T00:46:35.009Z,57.91
2022-07-29T00:47:07.765Z,57.88
2022-07-29T00:47:39.464Z,57.63
2022-07-29T00:48:11.525Z,57.67
2022-07-29T00:48:43.168Z,57.74
2022-07-29T00:49:15.041Z,58.14
2022-07-29T00:49:46.749Z,57.88
2022-07-29T00:50:18.909Z,57.84
2022-07-29T00:50:50.781Z,58.11
2022-07-29T00:51:22.385Z,57.73
2022-07-29T00:51:54.427Z,57.59
2022-07-29T00:52:26.321Z,57.59
2022-07-29T00:52:57.930Z,57.75
2022-07-29T00:53:31.168Z,57.81
2022-07-29T00:54:04.006Z,57.54
2022-07-29T00:54:39.854Z,57.37
2022-07-29T00:55:16.972Z,57.45
2022-07-29T00:55:48.799Z,57.38
2022-07-29T00:56:20.458Z,57.36
2022-07-29T00:56:52.198Z,57.27
2022-07-29T00:57:23.974Z,57.42
2022-07-29T00:57:56.099Z,57.42
2022-07-29T00:58:27.931Z,57.40
2022-07-29T00:59:00.455Z,57.53
2022-07-29T00:59:35.091Z,57.57
2022-07-29T01:00:10.497Z,57.36
2022-07-29T01:00:42.177Z,57.40
2022-07-29T01:01:13.852Z,57.43
2022-07-29T01:01:45.491Z,57.26
2022-07-29T01:02:17.166Z,57.29
2022-07-29T01:02:49.623Z,57.39
2022-07-29T01:03:21.210Z,57.47
2022-07-29T01:03:53.009Z,57.65
2022-07-29T01:04:24.985Z,57.54
2022-07-29T01:04:58.150Z,57.52
2022-07-29T01:05:50.070Z,57.62
2022-07-29T01:06:23.610Z,57.45
2022-07-29T01:06:55.822Z,57.44
2022-07-29T01:07:28.483Z,57.45
2022-07-29T01:08:00.349Z,57.35
2022-07-29T01:08:33.763Z,57.39
2022-07-29T01:09:06.828Z,57.46
2022-07-29T01:09:45.856Z,57.41
2022-07-29T01:10:20.397Z,57.43
2022-07-29T01:10:52.314Z,57.51
2022-07-29T01:11:24.287Z,57.45
2022-07-29T01:11:56.421Z,57.32
2022-07-29T01:12:30.033Z,57.31
2022-07-29T01:13:02.461Z,57.39
2022-07-29T01:13:34.485Z,57.33
2022-07-29T01:14:09.262Z,57.14
2022-07-29T01:14:41.844Z,57.20
2022-07-29T01:15:13.686Z,57.27
2022-07-29T01:15:50.459Z,57.25
2022-07-29T01:16:49.751Z,57.35
2022-07-29T01:17:29.714Z,57.50
2022-07-29T01:18:34.071Z,57.44
2022-07-29T01:19:34.508Z,57.41
2022-07-29T01:20:31.588Z,57.14
2022-07-29T01:21:15.819Z,57.20
2022-07-29T01:21:56.942Z,57.25
2022-07-29T01:23:09.535Z,57.22
2022-07-29T01:23:47.989Z,57.15
2022-07-29T01:24:49.022Z,56.99
2022-07-29T01:26:01.384Z,57.09
2022-07-29T01:26:49.067Z,57.36
2022-07-29T01:28:00.337Z,57.22
2022-07-29T01:28:54.109Z,57.17
2022-07-29T01:29:42.343Z,57.27
2022-07-29T01:30:16.667Z,57.30
2022-07-29T01:30:52.758Z,57.20
2022-07-29T01:31:58.966Z,57.19
2022-07-29T01:32:35.862Z,57.15
2022-07-29T01:33:11.198Z,57.12
2022-07-29T01:33:49.510Z,57.15
2022-07-29T01:34:44.293Z,57.15
2022-07-29T01:35:26.683Z,57.22
2022-07-29T01:35:59.849Z,57.29
2022-07-29T01:36:52.107Z,57.25
2022-07-29T01:37:29.415Z,57.30
2022-07-29T01:38:30.293Z,57.35
2022-07-29T01:39:13.586Z,57.29
2022-07-29T01:39:48.452Z,57.26
2022-07-29T01:40:35.827Z,57.20
2022-07-29T01:41:12.291Z,57.18
2022-07-29T01:42:05.287Z,57.23
2022-07-29T01:42:44.360Z,57.28
2022-07-29T01:43:21.141Z,57.26
2022-07-29T01:44:00.217Z,57.25
2022-07-29T01:44:40.914Z,57.32
2022-07-29T01:45:24.278Z,57.34
2022-07-29T01:46:03.720Z,57.19
2022-07-29T01:46:39.275Z,57.18
2022-07-29T01:47:20.786Z,57.23
2022-07-29T01:48:11.362Z,57.23
2022-07-29T01:48:49.882Z,57.26
2022-07-29T01:49:32.624Z,57.18
2022-07-29T01:50:08.726Z,57.24
2022-07-29T01:51:17.771Z,57.24
2022-07-29T01:51:53.829Z,57.27
2022-07-29T01:52:53.449Z,57.44
2022-07-29T01:53:43.798Z,57.23
2022-07-29T01:54:36.729Z,57.39
2022-07-29T01:55:15.209Z,57.33
2022-07-29T01:55:47.994Z,57.29
2022-07-29T01:56:20.965Z,57.33
2022-07-29T01:56:54.885Z,57.30
2022-07-29T01:57:29.488Z,57.29
2022-07-29T01:58:04.077Z,57.39
2022-07-29T01:58:37.693Z,57.41
2022-07-29T01:59:10.749Z,57.36
2022-07-29T01:59:44.756Z,57.51
2022-07-29T02:01:07.498Z,57.47
2022-07-29T02:01:42.512Z,57.53
2022-07-29T02:02:17.690Z,57.56
2022-07-29T02:02:51.118Z,57.67
2022-07-29T02:03:24.229Z,57.55
2022-07-29T02:03:57.461Z,57.54
2022-07-29T02:04:31.210Z,57.61
2022-07-29T02:05:05.609Z,57.59
2022-07-29T02:05:40.026Z,57.65
2022-07-29T02:06:13.492Z,57.66
2022-07-29T02:06:45.925Z,57.73
2022-07-29T02:07:22.057Z,57.75
2022-07-29T02:07:55.867Z,57.71
2022-07-29T02:08:28.903Z,57.69
2022-07-29T02:09:02.070Z,57.73
2022-07-29T02:09:36.550Z,57.65
2022-07-29T02:10:09.887Z,57.71
2022-07-29T02:10:43.191Z,57.72
2022-07-29T02:11:15.269Z,57.78
2022-07-29T02:11:52.237Z,57.73
2022-07-29T02:12:26.402Z,57.72
2022-07-29T02:13:00.226Z,57.85
2022-07-29T02:13:33.530Z,57.99
2022-07-29T02:14:07.266Z,57.80
2022-07-29T02:14:45.813Z,57.99
2022-07-29T02:15:19.629Z,57.84
2022-07-29T02:15:52.923Z,57.79
2022-07-29T02:16:28.037Z,57.81
2022-07-29T02:17:01.636Z,57.86
2022-07-29T02:17:46.732Z,57.87
2022-07-29T02:18:20.231Z,58.00
2022-07-29T02:18:54.937Z,57.96
2022-07-29T02:19:28.361Z,58.06
2022-07-29T02:20:04.674Z,57.96
2022-07-29T02:20:39.105Z,57.94
2022-07-29T02:21:14.897Z,57.95
2022-07-29T02:21:48.205Z,57.91
2022-07-29T02:22:21.333Z,57.96
2022-07-29T02:22:54.279Z,57.98
2022-07-29T02:23:27.146Z,58.10
2022-07-29T02:24:01.973Z,58.05
2022-07-29T02:24:36.602Z,58.08
2022-07-29T02:25:14.000Z,58.19
2022-07-29T02:25:49.001Z,58.20
2022-07-29T02:26:22.602Z,58.24
2022-07-29T02:26:57.482Z,58.19
2022-07-29T02:27:30.052Z,58.10
2022-07-29T02:28:02.549Z,58.22
2022-07-29T02:28:34.993Z,58.19
2022-07-29T02:29:09.838Z,58.27
2022-07-29T02:29:42.081Z,58.30
2022-07-29T02:30:14.183Z,58.38
2022-07-29T02:30:47.814Z,58.34
2022-07-29T02:31:24.072Z,58.40
2022-07-29T02:31:58.041Z,58.41
2022-07-29T02:32:31.385Z,58.44
2022-07-29T02:33:04.468Z,58.50
2022-07-29T02:33:37.005Z,58.58
2022-07-29T02:34:10.573Z,58.50
2022-07-29T02:34:43.312Z,58.45
2022-07-29T02:35:16.935Z,58.47
2022-07-29T02:35:49.553Z,58.54
2022-07-29T02:36:24.005Z,58.53
2022-07-29T02:36:56.793Z,58.59
2022-07-29T02:37:30.139Z,58.59
2022-07-29T02:38:22.153Z,58.61
2022-07-29T02:38:58.381Z,58.66
2022-07-29T02:39:31.154Z,58.83
2022-07-29T02:40:04.008Z,58.74
2022-07-29T02:40:39.219Z,58.71
2022-07-29T02:41:14.412Z,58.69
2022-07-29T02:41:49.557Z,58.74
2022-07-29T02:42:23.731Z,58.71
2022-07-29T02:42:55.902Z,58.73
2022-07-29T02:43:28.341Z,58.82
2022-07-29T02:44:06.092Z,58.86
2022-07-29T02:44:38.049Z,58.94
2022-07-29T02:45:10.932Z,58.97
2022-07-29T02:45:43.765Z,58.93
2022-07-29T02:46:29.516Z,58.91
2022-07-29T02:47:16.537Z,58.97
2022-07-29T02:47:51.553Z,59.02
2022-07-29T02:48:34.275Z,58.94
2022-07-29T02:49:20.482Z,59.04
2022-07-29T02:50:13.460Z,59.04
2022-07-29T02:50:51.378Z,59.13
2022-07-29T02:51:43.499Z,59.09
2022-07-29T02:52:21.434Z,59.07
2022-07-29T02:53:06.464Z,59.13
2022-07-29T02:53:39.826Z,59.18
2022-07-29T02:54:17.274Z,59.14
2022-07-29T02:55:01.602Z,59.17
2022-07-29T02:55:47.395Z,59.23
2022-07-29T02:56:28.665Z,59.28
2022-07-29T02:57:03.407Z,59.41
2022-07-29T02:57:55.123Z,59.32
2022-07-29T02:58:33.310Z,59.21
2022-07-29T02:59:10.601Z,59.23
2022-07-29T02:59:45.093Z,59.19
2022-07-29T03:00:17.918Z,59.21
2022-07-29T03:00:51.650Z,59.32
2022-07-29T03:01:33.319Z,59.36
2022-07-29T03:02:06.930Z,59.34
2022-07-29T03:02:42.882Z,59.41
2022-07-29T03:03:16.752Z,59.56
2022-07-29T03:03:50.122Z,59.51
2022-07-29T03:04:24.114Z,59.40
2022-07-29T03:04:57.562Z,59.43
2022-07-29T03:05:30.227Z,59.37
2022-07-29T03:06:03.932Z,59.36
2022-07-29T03:06:38.622Z,59.37
2022-07-29T03:07:14.020Z,59.53
2022-07-29T03:07:48.709Z,59.46
2022-07-29T03:08:20.469Z,59.49
2022-07-29T03:08:52.603Z,59.42
2022-07-29T03:09:24.661Z,59.44
2022-07-29T03:09:56.986Z,59.49
2022-07-29T03:10:29.357Z,59.51
2022-07-29T03:11:02.488Z,59.46
2022-07-29T03:11:39.030Z,59.49
2022-07-29T03:12:18.464Z,59.53
2022-07-29T03:12:51.190Z,59.59
2022-07-29T03:13:23.749Z,59.42
2022-07-29T03:13:55.690Z,59.46
2022-07-29T03:14:27.862Z,59.46
2022-07-29T03:15:00.271Z,59.50
2022-07-29T03:15:32.818Z,59.54
2022-07-29T03:16:06.012Z,59.52
2022-07-29T03:16:41.238Z,59.50
2022-07-29T03:17:14.090Z,59.59
2022-07-29T03:17:46.709Z,59.61
2022-07-29T03:18:19.362Z,59.64
2022-07-29T03:18:51.750Z,59.67
2022-07-29T03:19:23.392Z,59.65
2022-07-29T03:19:55.933Z,59.59
2022-07-29T03:20:28.027Z,59.57
2022-07-29T03:20:59.862Z,59.58
2022-07-29T03:21:32.082Z,59.58
2022-07-29T03:22:04.218Z,59.60
2022-07-29T03:22:44.402Z,59.51
2022-07-29T03:23:21.059Z,59.58
2022-07-29T03:23:52.625Z,59.57
2022-07-29T03:24:32.290Z,59.63
2022-07-29T03:25:15.404Z,59.66
2022-07-29T03:25:47.196Z,59.66
2022-07-29T03:26:20.040Z,59.59
2022-07-29T03:26:51.665Z,59.56
2022-07-29T03:27:23.335Z,59.64
2022-07-29T03:27:55.214Z,59.69
2022-07-29T03:28:28.307Z,59.66
2022-07-29T03:29:00.679Z,59.76
2022-07-29T03:29:34.058Z,59.69
2022-07-29T03:30:08.877Z,59.75
2022-07-29T03:30:40.571Z,59.77
2022-07-29T03:31:16.143Z,59.82
2022-07-29T03:31:47.755Z,59.75
2022-07-29T03:32:23.934Z,59.80
2022-07-29T03:32:58.718Z,59.77
2022-07-29T03:33:31.369Z,59.80
2022-07-29T03:34:02.969Z,59.81
2022-07-29T03:34:34.645Z,59.71
2022-07-29T03:35:07.377Z,59.76
2022-07-29T03:35:39.203Z,59.75
2022-07-29T03:36:10.764Z,59.84
2022-07-29T03:36:42.355Z,59.79
2022-07-29T03:37:14.667Z,59.73
2022-07-29T03:37:47.251Z,59.74
2022-07-29T03:38:19.351Z,59.70
2022-07-29T03:38:51.506Z,59.63
2022-07-29T03:39:26.550Z,59.68
2022-07-29T03:39:59.421Z,59.64
2022-07-29T03:40:41.809Z,59.65
2022-07-29T03:41:15.100Z,59.65
2022-07-29T03:41:49.310Z,59.73
2022-07-29T03:42:22.275Z,59.77
2022-07-29T03:42:56.360Z,59.77
2022-07-29T03:43:31.870Z,59.56
2022-07-29T03:44:06.794Z,59.57
2022-07-29T03:44:41.354Z,59.67
2022-07-29T03:45:20.113Z,59.71
2022-07-29T03:45:55.443Z,59.58
2022-07-29T03:46:29.774Z,59.61
2022-07-29T03:47:03.110Z,59.64
2022-07-29T03:47:51.045Z,59.64
2022-07-29T03:48:26.374Z,59.64
2022-07-29T03:49:01.358Z,59.67
2022-07-29T03:49:35.865Z,59.61
2022-07-29T03:50:10.856Z,59.51
2022-07-29T03:50:43.018Z,59.51
2022-07-29T03:51:15.169Z,59.52
2022-07-29T03:51:47.142Z,59.56
2022-07-29T03:52:20.783Z,59.60
2022-07-29T03:52:52.513Z,59.61
2022-07-29T03:53:24.412Z,59.70
2022-07-29T03:53:56.087Z,59.60
2022-07-29T03:54:27.960Z,59.56
2022-07-29T03:54:59.840Z,59.67
2022-07-29T03:55:41.083Z,59.67
2022-07-29T03:56:16.651Z,59.59
2022-07-29T03:56:51.241Z,59.64
2022-07-29T03:57:26.280Z,59.49
2022-07-29T03:57:59.509Z,59.52
2022-07-29T03:58:32.440Z,59.54
2022-07-29T03:59:04.940Z,59.59
2022-07-29T03:59:36.936Z,59.56
2022-07-29T04:00:09.969Z,59.51
2022-07-29T04:00:43.961Z,59.58
2022-07-29T04:01:16.518Z,59.61
2022-07-29T04:01:49.640Z,59.54
2022-07-29T04:02:24.451Z,59.56
2022-07-29T04:02:59.144Z,59.54
2022-07-29T04:03:30.975Z,59.71
2022-07-29T04:04:03.417Z,59.51
2022-07-29T04:04:36.245Z,59.53
2022-07-29T04:05:14.061Z,59.57
2022-07-29T04:05:45.598Z,59.58
2022-07-29T04:06:17.209Z,59.61
2022-07-29T04:06:48.939Z,59.48
2022-07-29T04:07:20.649Z,59.51
2022-07-29T04:07:52.259Z,59.61
2022-07-29T04:08:23.847Z,59.57
2022-07-29T04:08:55.507Z,59.55
2022-07-29T04:09:27.116Z,59.64
2022-07-29T04:09:58.667Z,59.56
2022-07-29T04:10:32.214Z,59.52
2022-07-29T04:11:06.647Z,59.60
2022-07-29T04:12:01.475Z,59.64
2022-07-29T04:12:32.741Z,59.59
2022-07-29T04:13:04.366Z,59.69
2022-07-29T04:13:36.002Z,59.57
2022-07-29T04:14:07.782Z,59.48
2022-07-29T04:14:39.531Z,59.47
2022-07-29T04:15:11.908Z,59.55
2022-07-29T04:15:43.550Z,59.47
2022-07-29T04:16:15.240Z,59.68
2022-07-29T04:16:47.385Z,59.69
2022-07-29T04:17:19.030Z,59.57
2022-07-29T04:17:50.571Z,59.55
2022-07-29T04:18:22.395Z,59.66
2022-07-29T04:18:54.041Z,59.57
2022-07-29T04:19:25.634Z,59.59
2022-07-29T04:19:57.207Z,59.62
2022-07-29T04:20:28.963Z,59.39
2022-07-29T04:21:01.821Z,59.48
2022-07-29T04:21:38.828Z,59.31
2022-07-29T04:22:10.383Z,59.31
2022-07-29T04:22:42.285Z,59.27
2022-07-29T04:23:13.894Z,59.27
2022-07-29T04:23:53.854Z,59.21
2022-07-29T04:24:26.055Z,59.14
2022-07-29T04:25:01.791Z,59.19
2022-07-29T04:25:38.771Z,59.12
2022-07-29T04:26:10.639Z,59.14
2022-07-29T04:26:43.424Z,59.09
2022-07-29T04:27:14.991Z,59.10
2022-07-29T04:28:06.810Z,58.95
2022-07-29T04:28:40.569Z,59.00
2022-07-29T04:29:12.966Z,58.97
2022-07-29T04:29:56.916Z,58.83
2022-07-29T04:30:30.531Z,58.75
2022-07-29T04:31:02.913Z,58.77
2022-07-29T04:31:34.545Z,58.73
2022-07-29T04:32:06.712Z,58.63
2022-07-29T04:32:38.263Z,58.70
2022-07-29T04:33:09.922Z,58.59
2022-07-29T04:33:41.538Z,58.45
2022-07-29T04:34:14.586Z,58.50
2022-07-29T04:34:47.590Z,58.50
2022-07-29T04:35:20.407Z,58.50
2022-07-29T04:35:52.478Z,58.50
2022-07-29T04:36:29.324Z,58.31
2022-07-29T04:37:01.262Z,58.38
2022-07-29T04:37:32.865Z,58.40
2022-07-29T04:38:05.860Z,58.31
2022-07-29T04:38:37.995Z,58.45
2022-07-29T04:39:09.586Z,58.27
2022-07-29T04:39:41.146Z,58.17
2022-07-29T04:40:13.047Z,57.99
2022-07-29T04:40:44.921Z,57.94
2022-07-29T04:41:16.477Z,57.96
2022-07-29T04:41:54.913Z,57.72
2022-07-29T04:42:28.048Z,57.74
2022-07-29T04:43:02.008Z,57.46
2022-07-29T04:43:37.463Z,57.41
2022-07-29T04:44:09.044Z,57.46
2022-07-29T04:44:43.107Z,57.75
2022-07-29T04:45:15.410Z,57.36
2022-07-29T04:45:47.686Z,57.21
2022-07-29T04:46:19.308Z,57.24
2022-07-29T04:46:50.866Z,57.06
2022-07-29T04:47:22.432Z,57.02
2022-07-29T04:47:54.101Z,57.02
2022-07-29T04:48:28.698Z,56.82
2022-07-29T04:49:00.619Z,56.94
2022-07-29T04:49:32.275Z,56.67
2022-07-29T04:50:04.281Z,56.56
2022-07-29T04:50:38.782Z,56.63
2022-07-29T04:51:10.355Z,56.63
2022-07-29T04:51:41.929Z,56.50
2022-07-29T04:52:13.462Z,56.44
2022-07-29T04:52:45.089Z,56.51
2022-07-29T04:53:16.703Z,56.29
2022-07-29T04:53:48.845Z,56.45
2022-07-29T04:54:20.445Z,56.17
2022-07-29T04:54:52.033Z,56.01
2022-07-29T04:55:23.621Z,55.98
2022-07-29T04:55:55.366Z,55.76
2022-07-29T04:56:27.269Z,55.98
2022-07-29T04:56:58.829Z,55.93
2022-07-29T04:57:30.461Z,55.72
2022-07-29T04:58:02.033Z,55.76
2022-07-29T04:58:37.629Z,55.70
2022-07-29T04:59:09.925Z,55.96
2022-07-29T04:59:41.492Z,55.83
2022-07-29T05:00:13.505Z,55.75
2022-07-29T05:00:45.289Z,55.77
2022-07-29T05:01:16.936Z,55.63
2022-07-29T05:01:48.670Z,55.64
2022-07-29T05:02:20.348Z,55.72
2022-07-29T05:02:52.046Z,55.70
2022-07-29T05:03:26.090Z,55.72
2022-07-29T05:04:00.517Z,55.60
2022-07-29T05:04:32.517Z,56.05
2022-07-29T05:05:04.401Z,55.95
2022-07-29T05:05:36.173Z,56.03
2022-07-29T05:06:07.830Z,55.83
2022-07-29T05:06:39.406Z,55.90
2022-07-29T05:07:10.973Z,55.86
2022-07-29T05:07:42.617Z,55.84
2022-07-29T05:08:14.208Z,55.95
2022-07-29T05:08:45.743Z,55.79
2022-07-29T05:09:17.391Z,55.76
2022-07-29T05:09:48.965Z,55.99
2022-07-29T05:10:20.893Z,55.69
2022-07-29T05:10:52.577Z,55.71
2022-07-29T05:11:28.668Z,55.82
2022-07-29T05:12:02.244Z,55.90
2022-07-29T05:12:34.032Z,55.74
2022-07-29T05:13:07.606Z,55.54
2022-07-29T05:13:45.869Z,55.57
2022-07-29T05:14:18.842Z,55.69
2022-07-29T05:14:50.755Z,55.66
2022-07-29T05:15:22.317Z,55.65
2022-07-29T05:15:53.981Z,55.66
2022-07-29T05:16:25.696Z,55.42
2022-07-29T05:16:58.117Z,55.47
2022-07-29T05:17:29.697Z,55.65
2022-07-29T05:18:02.129Z,55.50
2022-07-29T05:18:33.693Z,55.68
2022-07-29T05:19:05.248Z,55.41
2022-07-29T05:19:39.716Z,55.44
2022-07-29T05:20:11.616Z,55.42
2022-07-29T05:20:43.176Z,55.38
2022-07-29T05:21:14.742Z,55.34
2022-07-29T05:21:46.317Z,55.34
2022-07-29T05:22:19.628Z,55.40
2022-07-29T05:22:51.209Z,55.72
2022-07-29T05:23:22.809Z,55.09
2022-07-29T05:23:54.371Z,55.05
2022-07-29T05:24:26.028Z,55.18
2022-07-29T05:24:57.583Z,55.15
2022-07-29T05:25:40.675Z,55.00
2022-07-29T05:26:16.065Z,55.08
2022-07-29T05:26:47.661Z,54.99
2022-07-29T05:27:19.230Z,54.96
2022-07-29T05:27:51.136Z,55.24
2022-07-29T05:28:22.725Z,55.14
2022-07-29T05:28:55.443Z,55.27
2022-07-29T05:29:44.519Z,55.29
2022-07-29T05:30:17.420Z,54.95
2022-07-29T05:30:49.462Z,54.90
2022-07-29T05:31:21.512Z,54.75
2022-07-29T05:31:53.926Z,54.68
2022-07-29T05:32:25.499Z,54.93
2022-07-29T05:32:57.073Z,54.80
2022-07-29T05:33:34.943Z,54.67
2022-07-29T05:34:08.380Z,55.35
2022-07-29T05:34:50.174Z,56.46
2022-07-29T05:35:23.553Z,55.54
2022-07-29T05:35:59.943Z,54.95
2022-07-29T05:36:32.323Z,55.06
2022-07-29T05:37:06.657Z,54.82
2022-07-29T05:37:38.553Z,54.76
2022-07-29T05:38:21.222Z,54.68
2022-07-29T05:38:55.861Z,54.76
2022-07-29T05:39:48.174Z,54.63
2022-07-29T05:40:19.144Z,54.57
2022-07-29T05:40:50.757Z,54.96
2022-07-29T05:41:34.341Z,54.55
2022-07-29T05:42:11.073Z,54.56
2022-07-29T05:42:42.735Z,54.54
2022-07-29T05:43:16.298Z,54.57
2022-07-29T05:43:47.886Z,54.66
2022-07-29T05:44:20.792Z,54.66
2022-07-29T05:44:57.893Z,54.52
2022-07-29T05:45:29.768Z,54.70
2022-07-29T05:46:11.153Z,54.57
2022-07-29T05:46:43.065Z,54.71
2022-07-29T05:48:09.810Z,54.65
2022-07-29T05:48:41.992Z,54.75
2022-07-29T05:49:13.824Z,54.76
2022-07-29T05:50:05.882Z,54.66
2022-07-29T05:51:14.397Z,54.50
2022-07-29T05:51:45.972Z,54.45
2022-07-29T05:53:19.093Z,54.39
2022-07-29T05:53:52.076Z,54.35
2022-07-29T05:54:23.660Z,54.54
2022-07-29T05:54:55.298Z,54.10
2022-07-29T05:55:27.352Z,53.95
2022-07-29T05:55:58.986Z,53.91
2022-07-29T05:56:30.982Z,54.32
2022-07-29T05:57:02.776Z,53.99
2022-07-29T05:57:34.439Z,53.94
2022-07-29T05:58:06.003Z,53.98
2022-07-29T05:58:37.641Z,54.10
2022-07-29T05:59:17.967Z,53.92
2022-07-29T05:59:51.151Z,53.71
2022-07-29T06:00:23.571Z,53.55
2022-07-29T06:00:56.936Z,53.87
2022-07-29T06:01:28.524Z,54.29
2022-07-29T06:02:00.265Z,54.07
2022-07-29T06:02:32.016Z,53.97
2022-07-29T06:03:03.630Z,53.90
2022-07-29T06:03:35.682Z,54.05
2022-07-29T06:04:07.893Z,53.89
2022-07-29T06:04:39.545Z,53.97
2022-07-29T06:05:17.294Z,54.04
2022-07-29T06:05:49.246Z,53.68
2022-07-29T06:06:21.008Z,53.88
2022-07-29T06:06:52.596Z,54.08
2022-07-29T06:07:24.164Z,53.92
2022-07-29T06:07:55.764Z,53.88
2022-07-29T06:08:27.684Z,53.89
2022-07-29T06:08:59.604Z,53.53
2022-07-29T06:09:44.274Z,53.31
2022-07-29T06:10:15.870Z,53.41
2022-07-29T06:10:47.457Z,53.31
2022-07-29T06:11:19.001Z,53.12
2022-07-29T06:11:50.585Z,53.24
2022-07-29T06:12:22.143Z,53.10
2022-07-29T06:12:54.428Z,52.98
2022-07-29T06:13:25.981Z,53.11
2022-07-29T06:13:57.581Z,53.15
2022-07-29T06:14:29.394Z,52.71
2022-07-29T06:15:00.959Z,52.53
2022-07-29T06:15:33.187Z,52.76
2022-07-29T06:16:05.228Z,52.62
2022-07-29T06:16:36.905Z,53.05
2022-07-29T06:17:08.536Z,52.67
2022-07-29T06:18:00.685Z,52.40
2022-07-29T06:18:33.036Z,52.38
2022-07-29T06:19:07.272Z,52.44
2022-07-29T06:19:39.157Z,52.46
2022-07-29T06:20:12.397Z,52.51
2022-07-29T06:20:44.091Z,52.89
2022-07-29T06:21:19.000Z,52.58
2022-07-29T06:21:50.655Z,52.82
2022-07-29T06:22:22.258Z,53.02
2022-07-29T06:22:53.862Z,52.71
2022-07-29T06:23:25.454Z,52.90
2022-07-29T06:23:57.049Z,52.95
2022-07-29T06:24:29.516Z,52.99
2022-07-29T06:25:02.512Z,53.03
2022-07-29T06:25:38.352Z,53.16
2022-07-29T06:26:10.134Z,52.52
2022-07-29T06:26:42.972Z,51.91
2022-07-29T06:27:14.764Z,51.52
2022-07-29T06:27:46.377Z,51.55
2022-07-29T06:28:17.932Z,51.44
2022-07-29T06:28:49.954Z,51.57
2022-07-29T06:29:29.616Z,51.52
2022-07-29T06:30:07.622Z,51.80
2022-07-29T06:30:40.426Z,52.01
2022-07-29T06:31:12.199Z,51.96
2022-07-29T06:31:43.854Z,51.80
2022-07-29T06:32:15.502Z,51.58
2022-07-29T06:32:47.293Z,51.67
2022-07-29T06:33:19.961Z,51.92
2022-07-29T06:33:51.617Z,51.82
2022-07-29T06:34:26.616Z,51.67
2022-07-29T06:35:24.441Z,52.10
2022-07-29T06:35:53.541Z,52.11
2022-07-29T06:36:26.753Z,51.83
2022-07-29T06:36:59.652Z,52.30
2022-07-29T06:37:31.279Z,51.73
2022-07-29T06:38:16.006Z,52.10
2022-07-29T06:38:56.528Z,51.93
2022-07-29T06:39:28.934Z,51.94
2022-07-29T06:40:18.791Z,52.01
2022-07-29T06:41:11.079Z,51.68
2022-07-29T06:41:42.641Z,51.70
2022-07-29T06:42:14.241Z,51.95
2022-07-29T06:42:46.037Z,52.18
2022-07-29T06:43:17.680Z,52.04
2022-07-29T06:43:51.718Z,52.01
2022-07-29T06:44:24.286Z,52.12
2022-07-29T06:44:55.839Z,52.17
2022-07-29T06:45:30.327Z,52.14
2022-07-29T06:46:04.360Z,51.98
2022-07-29T06:46:36.075Z,52.04
2022-07-29T06:47:07.890Z,51.93
2022-07-29T06:47:39.560Z,51.75
2022-07-29T06:48:11.128Z,51.89
2022-07-29T06:48:43.447Z,51.73
2022-07-29T06:49:15.350Z,51.79
2022-07-29T06:49:46.973Z,51.48
2022-07-29T06:50:18.536Z,51.41
2022-07-29T06:50:50.096Z,51.55
2022-07-29T06:51:23.503Z,51.75
2022-07-29T06:51:56.174Z,52.25
2022-07-29T06:52:27.753Z,52.23
2022-07-29T06:52:59.361Z,51.81
2022-07-29T06:53:31.474Z,51.94
2022-07-29T06:54:05.864Z,52.04
2022-07-29T06:54:37.479Z,52.18
2022-07-29T06:55:09.559Z,52.22
2022-07-29T06:55:41.210Z,51.97
2022-07-29T06:56:14.871Z,51.95
2022-07-29T06:56:46.817Z,51.91
2022-07-29T06:57:18.378Z,52.61
2022-07-29T06:57:49.903Z,52.13
2022-07-29T06:58:23.490Z,51.72
2022-07-29T06:58:55.127Z,51.80
2022-07-29T06:59:35.117Z,51.53
2022-07-29T07:00:08.369Z,51.81
2022-07-29T07:00:39.994Z,52.00
2022-07-29T07:01:11.711Z,51.60
2022-07-29T07:01:45.675Z,52.29
2022-07-29T07:02:17.398Z,52.49
2022-07-29T07:02:49.071Z,52.29
2022-07-29T07:03:21.181Z,52.30
2022-07-29T07:03:52.991Z,51.70
2022-07-29T07:04:24.545Z,51.97
2022-07-29T07:04:56.167Z,51.88
2022-07-29T07:05:27.741Z,51.81
2022-07-29T07:06:01.089Z,51.65
2022-07-29T07:06:32.742Z,51.62
2022-07-29T07:07:04.353Z,51.44
2022-07-29T07:07:35.922Z,51.86
2022-07-29T07:08:09.019Z,51.86
2022-07-29T07:08:40.595Z,51.71
2022-07-29T07:09:12.260Z,51.60
2022-07-29T07:09:43.894Z,51.60
2022-07-29T07:10:15.931Z,51.67
2022-07-29T07:10:47.849Z,51.34
2022-07-29T07:11:20.202Z,51.10
2022-07-29T07:11:51.766Z,51.03
2022-07-29T07:12:23.369Z,51.43
2022-07-29T07:12:54.909Z,51.43
2022-07-29T07:13:26.777Z,51.13
2022-07-29T07:14:03.012Z,51.31
2022-07-29T07:14:35.280Z,50.77
2022-07-29T07:15:07.542Z,50.64
2022-07-29T07:15:40.251Z,50.82
2022-07-29T07:16:12.064Z,50.38
2022-07-29T07:16:43.777Z,50.84
2022-07-29T07:17:15.355Z,50.42
2022-07-29T07:17:49.598Z,50.01
2022-07-29T07:18:21.261Z,50.40
2022-07-29T07:18:52.829Z,50.70
2022-07-29T07:19:24.397Z,50.68
2022-07-29T07:19:55.953Z,51.05
2022-07-29T07:20:27.740Z,50.50
2022-07-29T07:20:59.341Z,50.20
2022-07-29T07:21:31.296Z,50.26
2022-07-29T07:22:03.071Z,49.75
2022-07-29T07:22:38.877Z,50.12
2022-07-29T07:23:10.663Z,50.18
2022-07-29T07:23:42.276Z,49.79
2022-07-29T07:24:14.096Z,50.21
2022-07-29T07:24:45.890Z,49.87
2022-07-29T07:25:18.376Z,49.56
2022-07-29T07:25:50.205Z,49.23
2022-07-29T07:26:21.843Z,49.27
2022-07-29T07:26:53.478Z,49.40
2022-07-29T07:27:25.045Z,49.74